Time;durP1;ratioP1;P1;durP2;ratioP2;P2;SDS_P1;SDS_P2;PMS_P1;PMS_P2;Temp;Humidity;BMP_temperature;BMP_pressure;BME280_temperature;BME280_humidity;BME280_pressure;Samples;Min_cycle;Max_cycle;Signal;HPM_P1;HPM_P2
2022/12/18 00:03:35;;;;;;;6.80;6.13;;;;;;;;;;10065822;28;20056;-68
2022/12/18 00:08:31;;;;;;;8.27;6.70;;;;;;;;;;10065790;28;20567;-67
2022/12/18 00:13:24;;;;;;;22.25;6.75;;;;;;;;;;10066099;28;20088;-68
2022/12/18 00:18:20;;;;;;;8.07;6.90;;;;;;;;;;10068453;28;20053;-68
2022/12/18 00:23:13;;;;;;;10.20;6.20;;;;;;;;;;10073411;28;20057;-67
2022/12/18 00:28:06;;;;;;;11.10;7.72;;;;;;;;;;10072610;28;20464;-67
2022/12/18 00:32:59;;;;;;;8.13;7.10;;;;;;;;;;10072330;28;20068;-66
2022/12/18 00:37:52;;;;;;;10.45;8.10;;;;;;;;;;10090238;28;20083;-67
2022/12/18 00:42:57;;;;;;;8.55;7.15;;;;;;;;;;10085685;28;20045;-67
2022/12/18 00:47:50;;;;;;;11.73;7.00;;;;;;;;;;10074994;28;20112;-67
2022/12/18 00:52:42;;;;;;;10.32;7.63;;;;;;;;;;10076409;28;20040;-67
2022/12/18 00:57:35;;;;;;;10.18;7.05;;;;;;;;;;10072128;28;20443;-67
2022/12/18 01:02:28;;;;;;;8.57;7.68;;;;;;;;;;10082921;28;20045;-67
2022/12/18 01:07:22;;;;;;;12.65;8.40;;;;;;;;;;10078514;28;20505;-67
2022/12/18 01:12:15;;;;;;;8.75;7.88;;;;;;;;;;10075474;28;20092;-67
2022/12/18 01:17:09;;;;;;;8.95;8.05;;;;;;;;;;10078382;28;20465;-68
2022/12/18 01:22:03;;;;;;;12.82;8.50;;;;;;;;;;10068898;28;20046;-68
2022/12/18 01:26:57;;;;;;;11.10;7.85;;;;;;;;;;10065860;28;20061;-68
2022/12/18 01:31:51;;;;;;;10.80;8.48;;;;;;;;;;10066241;28;20085;-68
2022/12/18 01:36:45;;;;;;;8.77;7.30;;;;;;;;;;10069338;28;20064;-67
2022/12/18 01:47:01;;;;;;;10.45;8.45;;;;;;;;;;10057922;28;20061;-68
2022/12/18 01:51:54;;;;;;;9.07;7.32;;;;;;;;;;10070837;28;20055;-67
2022/12/18 01:56:48;;;;;;;9.48;7.35;;;;;;;;;;10069075;28;20049;-68
2022/12/18 02:01:41;;;;;;;8.43;7.35;;;;;;;;;;10069524;28;20461;-67
2022/12/18 02:06:40;;;;;;;9.43;7.78;;;;;;;;;;10068775;28;20052;-67
2022/12/18 02:11:42;;;;;;;8.57;7.72;;;;;;;;;;10051814;28;20080;-67
2022/12/18 02:16:48;;;;;;;10.05;7.85;;;;;;;;;;10060813;28;20045;-66
2022/12/18 02:22:01;;;;;;;9.30;8.00;;;;;;;;;;10068233;28;20083;-68
2022/12/18 02:26:58;;;;;;;18.45;8.18;;;;;;;;;;10068031;28;20050;-67
2022/12/18 02:32:00;;;;;;;10.50;7.80;;;;;;;;;;10051343;28;20590;-67
2022/12/18 02:36:53;;;;;;;9.45;7.78;;;;;;;;;;10067854;28;20048;-67
2022/12/18 02:41:48;;;;;;;10.02;8.40;;;;;;;;;;10051224;28;20077;-67
2022/12/18 02:47:05;;;;;;;9.15;7.93;;;;;;;;;;10067693;28;20057;-67
2022/12/18 02:52:31;;;;;;;12.02;9.68;;;;;;;;;;10065478;28;20057;-67
2022/12/18 02:57:45;;;;;;;12.32;9.52;;;;;;;;;;10066397;28;20082;-67
2022/12/18 03:02:59;;;;;;;11.93;10.35;;;;;;;;;;10067270;28;20422;-67
2022/12/18 03:08:18;;;;;;;9.70;8.70;;;;;;;;;;10066284;28;20119;-67
2022/12/18 03:13:19;;;;;;;8.98;8.18;;;;;;;;;;10050712;28;20087;-67
2022/12/18 03:18:18;;;;;;;9.52;8.57;;;;;;;;;;10065987;28;20046;-67
2022/12/18 03:23:15;;;;;;;9.85;8.68;;;;;;;;;;10065523;28;20080;-67
2022/12/18 03:28:31;;;;;;;11.85;10.05;;;;;;;;;;10065907;28;20483;-66
2022/12/18 03:33:41;;;;;;;16.33;8.25;;;;;;;;;;10064661;28;20414;-67
2022/12/18 03:38:34;;;;;;;12.18;10.88;;;;;;;;;;10065146;28;20506;-67
2022/12/18 03:43:50;;;;;;;11.13;10.00;;;;;;;;;;10066340;28;20053;-67
2022/12/18 03:49:02;;;;;;;15.45;10.25;;;;;;;;;;10056862;28;20099;-66
2022/12/18 03:54:00;;;;;;;10.18;9.10;;;;;;;;;;10066487;28;20046;-66
2022/12/18 03:59:16;;;;;;;9.77;8.77;;;;;;;;;;10073051;28;20095;-67
2022/12/18 04:04:10;;;;;;;10.85;8.73;;;;;;;;;;10073378;28;20119;-66
2022/12/18 04:09:05;;;;;;;9.05;8.15;;;;;;;;;;10074244;28;20049;-66
2022/12/18 04:14:02;;;;;;;9.55;8.55;;;;;;;;;;10073518;28;20065;-67
2022/12/18 04:19:00;;;;;;;10.00;8.55;;;;;;;;;;10072917;28;20128;-67
2022/12/18 04:23:59;;;;;;;8.73;7.75;;;;;;;;;;10072505;28;20060;-67
2022/12/18 04:28:53;;;;;;;10.18;8.65;;;;;;;;;;10071992;28;20071;-67
2022/12/18 04:33:47;;;;;;;10.30;8.88;;;;;;;;;;10073643;28;20091;-67
2022/12/18 04:38:41;;;;;;;8.38;7.53;;;;;;;;;;10072207;28;20458;-67
2022/12/18 04:43:39;;;;;;;11.73;9.30;;;;;;;;;;10059003;28;20136;-67
2022/12/18 04:48:34;;;;;;;10.20;8.90;;;;;;;;;;10072250;28;20498;-67
2022/12/18 04:53:27;;;;;;;9.45;8.45;;;;;;;;;;10072275;28;20049;-67
2022/12/18 04:58:20;;;;;;;8.60;7.70;;;;;;;;;;10072405;28;20075;-67
2022/12/18 05:03:14;;;;;;;9.40;8.40;;;;;;;;;;10072095;28;20050;-67
2022/12/18 05:08:08;;;;;;;10.70;8.95;;;;;;;;;;10071428;28;20050;-66
2022/12/18 05:13:03;;;;;;;8.75;7.93;;;;;;;;;;10071799;28;20124;-66
2022/12/18 05:17:57;;;;;;;10.10;9.18;;;;;;;;;;10072023;28;20053;-66
2022/12/18 05:22:51;;;;;;;13.13;9.50;;;;;;;;;;10071953;28;20072;-67
2022/12/18 05:27:44;;;;;;;10.30;9.20;;;;;;;;;;10071345;28;20085;-67
2022/12/18 05:32:38;;;;;;;9.63;8.65;;;;;;;;;;10071352;28;20048;-66
2022/12/18 05:37:32;;;;;;;10.32;9.23;;;;;;;;;;10066094;28;20053;-66
2022/12/18 05:42:31;;;;;;;10.40;8.98;;;;;;;;;;10070678;28;20674;-66
2022/12/18 05:47:26;;;;;;;11.88;10.68;;;;;;;;;;10070682;28;20046;-68
2022/12/18 05:52:20;;;;;;;10.38;9.38;;;;;;;;;;10070286;28;20076;-67
2022/12/18 05:57:13;;;;;;;10.75;9.63;;;;;;;;;;10070553;28;20053;-68
2022/12/18 06:02:06;;;;;;;11.43;9.88;;;;;;;;;;10069716;28;20053;-68
2022/12/18 06:07:03;;;;;;;13.23;11.52;;;;;;;;;;10070116;28;20061;-68
2022/12/18 06:11:59;;;;;;;11.53;10.03;;;;;;;;;;10070041;28;20132;-66
2022/12/18 06:16:52;;;;;;;12.60;9.27;;;;;;;;;;10069485;28;20081;-66
2022/12/18 06:21:44;;;;;;;11.90;10.70;;;;;;;;;;10069747;28;20042;-66
2022/12/18 06:26:39;;;;;;;11.32;9.77;;;;;;;;;;10069480;28;20111;-66
2022/12/18 06:31:33;;;;;;;13.13;11.82;;;;;;;;;;10069450;28;20061;-66
2022/12/18 06:36:29;;;;;;;13.50;12.10;;;;;;;;;;10069059;28;20059;-66
2022/12/18 06:41:22;;;;;;;12.55;11.02;;;;;;;;;;10069319;28;20107;-66
2022/12/18 06:46:15;;;;;;;12.43;10.15;;;;;;;;;;10068872;28;20096;-66
2022/12/18 06:51:08;;;;;;;12.63;11.27;;;;;;;;;;10068426;28;20057;-66
2022/12/18 06:56:03;;;;;;;14.23;9.55;;;;;;;;;;10067574;28;20065;-66
2022/12/18 07:01:03;;;;;;;12.40;11.10;;;;;;;;;;10065659;28;20045;-65
2022/12/18 07:05:57;;;;;;;11.57;10.48;;;;;;;;;;10067125;28;20465;-66
2022/12/18 07:10:50;;;;;;;10.20;9.20;;;;;;;;;;10066962;28;20402;-65
2022/12/18 07:15:48;;;;;;;12.00;10.75;;;;;;;;;;10066373;28;20115;-66
2022/12/18 07:20:42;;;;;;;11.45;10.25;;;;;;;;;;10066364;28;20060;-66
2022/12/18 07:25:36;;;;;;;11.63;10.48;;;;;;;;;;10065854;28;20057;-65
2022/12/18 07:30:30;;;;;;;11.55;9.80;;;;;;;;;;10065089;28;20085;-65
2022/12/18 07:35:23;;;;;;;19.60;11.45;;;;;;;;;;10065767;28;20437;-65
2022/12/18 07:40:18;;;;;;;12.65;11.25;;;;;;;;;;10071410;28;20037;-66
2022/12/18 07:45:10;;;;;;;13.52;12.10;;;;;;;;;;10064005;28;20072;-66
2022/12/18 07:50:04;;;;;;;14.65;12.00;;;;;;;;;;10067477;28;20129;-66
2022/12/18 07:54:57;;;;;;;15.93;13.25;;;;;;;;;;10073104;28;20073;-66
2022/12/18 07:59:50;;;;;;;15.20;12.95;;;;;;;;;;10071008;28;20080;-66
2022/12/18 08:04:45;;;;;;;14.00;12.57;;;;;;;;;;10070554;28;20046;-65
2022/12/18 08:09:39;;;;;;;15.95;14.27;;;;;;;;;;10078685;28;20088;-65
2022/12/18 08:14:33;;;;;;;17.58;14.30;;;;;;;;;;10068862;28;20107;-65
2022/12/18 08:19:27;;;;;;;17.90;15.32;;;;;;;;;;10068881;28;20045;-65
2022/12/18 08:24:21;;;;;;;17.33;15.73;;;;;;;;;;10075619;28;20095;-65
2022/12/18 08:29:14;;;;;;;19.08;17.08;;;;;;;;;;10073174;28;20057;-65
2022/12/18 08:34:13;;;;;;;18.88;17.02;;;;;;;;;;10084165;28;20061;-65
2022/12/18 08:39:07;;;;;;;19.65;17.33;;;;;;;;;;10076063;28;20104;-65
2022/12/18 08:49:12;;;;;;;19.48;17.40;;;;;;;;;;10084291;28;20037;-65
2022/12/18 08:54:06;;;;;;;21.02;17.45;;;;;;;;;;10081385;28;20050;-65
2022/12/18 08:59:00;;;;;;;22.58;17.80;;;;;;;;;;10088490;28;20064;-65
2022/12/18 09:03:53;;;;;;;18.25;16.35;;;;;;;;;;10078508;28;20068;-66
2022/12/18 09:08:47;;;;;;;18.08;16.27;;;;;;;;;;10088176;28;20060;-66
2022/12/18 09:13:40;;;;;;;20.55;18.42;;;;;;;;;;10084210;28;20041;-64
2022/12/18 09:18:35;;;;;;;20.27;18.15;;;;;;;;;;10081302;28;20421;-66
2022/12/18 09:23:29;;;;;;;23.73;21.10;;;;;;;;;;10081846;28;20064;-66
2022/12/18 09:28:23;;;;;;;22.42;18.75;;;;;;;;;;10083688;28;20398;-64
2022/12/18 09:33:16;;;;;;;20.33;18.27;;;;;;;;;;10070101;28;20072;-66
2022/12/18 09:38:16;;;;;;;23.70;18.00;;;;;;;;;;10065032;28;20060;-65
2022/12/18 09:43:16;;;;;;;18.02;16.10;;;;;;;;;;10064151;28;20049;-65
2022/12/18 09:48:52;;;;;;;19.00;17.17;;;;;;;;;;10071400;28;20045;-70
2022/12/18 09:53:50;;;;;;;18.05;16.25;;;;;;;;;;10067076;28;20041;-65
2022/12/18 09:58:57;;;;;;;15.80;14.20;;;;;;;;;;10068440;28;20045;-71
2022/12/18 10:03:52;;;;;;;16.30;14.80;;;;;;;;;;10072420;28;20395;-66
2022/12/18 10:08:44;;;;;;;16.23;14.57;;;;;;;;;;10074367;28;20453;-66
2022/12/18 10:14:09;;;;;;;14.90;13.40;;;;;;;;;;10074623;28;20128;-66
2022/12/18 10:19:28;;;;;;;14.73;13.32;;;;;;;;;;10084631;28;20574;-65
2022/12/18 10:24:51;;;;;;;14.45;13.05;;;;;;;;;;10085596;28;20056;-66
2022/12/18 10:29:45;;;;;;;13.60;12.20;;;;;;;;;;10089625;28;20054;-66
2022/12/18 10:34:38;;;;;;;16.23;14.63;;;;;;;;;;10079001;28;20065;-66
2022/12/18 10:39:31;;;;;;;16.25;13.95;;;;;;;;;;10073181;28;20124;-66
2022/12/18 10:44:47;;;;;;;13.93;12.52;;;;;;;;;;10077744;28;20053;-66
2022/12/18 10:50:10;;;;;;;14.65;13.23;;;;;;;;;;10074202;28;20044;-65
2022/12/18 10:55:05;;;;;;;15.07;13.57;;;;;;;;;;10069173;28;20076;-66
2022/12/18 10:59:59;;;;;;;15.52;14.00;;;;;;;;;;10070034;28;20453;-66
2022/12/18 11:04:52;;;;;;;15.48;13.95;;;;;;;;;;10073296;28;20053;-66
2022/12/18 11:10:04;;;;;;;14.43;12.90;;;;;;;;;;10061087;28;20132;-67
2022/12/18 11:14:59;;;;;;;15.95;14.02;;;;;;;;;;10064094;28;20069;-66
2022/12/18 11:20:04;;;;;;;17.15;15.38;;;;;;;;;;10067600;28;20097;-66
2022/12/18 11:25:00;;;;;;;22.90;19.90;;;;;;;;;;10061024;28;20057;-68
2022/12/18 11:30:38;;;;;;;20.67;17.60;;;;;;;;;;10073554;28;20136;-69
2022/12/18 11:35:49;;;;;;;15.77;13.23;;;;;;;;;;10066346;28;20118;-72
2022/12/18 11:40:45;;;;;;;23.65;15.00;;;;;;;;;;10063921;28;20051;-64
2022/12/18 11:45:53;;;;;;;16.25;14.65;;;;;;;;;;10072160;28;20049;-71
2022/12/18 11:50:56;;;;;;;15.93;14.32;;;;;;;;;;10061343;28;20068;-65
2022/12/18 11:56:13;;;;;;;22.25;19.35;;;;;;;;;;10070750;28;20049;-65
2022/12/18 12:01:27;;;;;;;18.58;16.35;;;;;;;;;;10066847;28;20132;-66
2022/12/18 12:06:29;;;;;;;16.27;14.35;;;;;;;;;;10072559;28;20095;-67
2022/12/18 12:11:36;;;;;;;17.17;15.48;;;;;;;;;;10065456;28;20080;-67
2022/12/18 12:16:29;;;;;;;18.50;16.48;;;;;;;;;;10068142;28;20057;-67
2022/12/18 12:21:47;;;;;;;16.65;14.95;;;;;;;;;;10071628;28;20520;-66
2022/12/18 12:26:55;;;;;;;20.07;17.97;;;;;;;;;;10077218;28;20049;-66
2022/12/18 12:32:07;;;;;;;20.52;17.38;;;;;;;;;;10079689;28;20506;-65
2022/12/18 12:37:21;;;;;;;19.25;17.20;;;;;;;;;;10062735;28;20053;-65
2022/12/18 12:47:39;;;;;;;18.83;16.67;;;;;;;;;;10065301;28;20129;-65
2022/12/18 12:52:54;;;;;;;21.45;17.95;;;;;;;;;;10065732;28;20053;-65
2022/12/18 12:58:15;;;;;;;21.33;17.35;;;;;;;;;;10068931;28;20042;-65
2022/12/18 13:03:31;;;;;;;19.63;17.23;;;;;;;;;;10067705;28;20049;-64
2022/12/18 13:08:30;;;;;;;21.10;16.73;;;;;;;;;;10069566;28;20406;-64
2022/12/18 13:13:53;;;;;;;20.15;18.08;;;;;;;;;;10068988;28;20135;-64
2022/12/18 13:18:50;;;;;;;;;;;;;;;;;;10061781;28;20119;-62
2022/12/18 13:23:43;;;;;;;33.83;27.00;;;;;;;;;;10069328;28;19986;-64
2022/12/18 13:28:46;;;;;;;26.77;22.05;;;;;;;;;;10072200;28;20077;-66
2022/12/18 13:33:39;;;;;;;28.15;21.70;;;;;;;;;;10081259;28;20044;-68
2022/12/18 13:39:11;;;;;;;23.83;21.20;;;;;;;;;;10070558;28;20053;-70
2022/12/18 13:44:37;;;;;;;22.75;17.52;;;;;;;;;;10070074;28;20053;-71
2022/12/18 13:49:40;;;;;;;20.02;17.65;;;;;;;;;;10061202;28;20041;-71
2022/12/18 13:54:40;;;;;;;20.67;18.48;;;;;;;;;;10069861;28;20076;-71
2022/12/18 13:59:34;;;;;;;;;;;;;;;;;;10066815;28;20042;-71
2022/12/18 14:04:29;;;;;;;23.23;20.45;;;;;;;;;;10066957;28;19927;-71
2022/12/18 14:09:26;;;;;;;23.25;20.80;;;;;;;;;;10071175;28;20487;-69
2022/12/18 14:14:22;;;;;;;27.80;22.15;;;;;;;;;;10070869;28;20044;-69
2022/12/18 14:19:25;;;;;;;23.05;20.25;;;;;;;;;;10069901;28;20410;-70
2022/12/18 14:24:20;;;;;;;24.23;21.50;;;;;;;;;;10079920;28;20144;-69
2022/12/18 14:29:23;;;;;;;23.30;20.77;;;;;;;;;;10072074;28;20060;-70
2022/12/18 14:34:19;;;;;;;24.08;20.92;;;;;;;;;;10077652;28;20056;-70
2022/12/18 14:39:17;;;;;;;23.23;20.17;;;;;;;;;;10072436;28;20052;-69
2022/12/18 14:44:12;;;;;;;22.33;19.83;;;;;;;;;;10071792;28;20119;-70
2022/12/18 14:49:32;;;;;;;31.17;24.05;;;;;;;;;;10071383;28;20045;-70
2022/12/18 14:54:25;;;;;;;28.92;25.30;;;;;;;;;;10068878;28;20132;-70
2022/12/18 14:59:25;;;;;;;29.35;25.80;;;;;;;;;;10065650;28;20402;-71
2022/12/18 15:04:29;;;;;;;34.42;26.17;;;;;;;;;;10068440;28;20103;-68
2022/12/18 15:09:26;;;;;;;29.73;25.15;;;;;;;;;;10069139;28;20091;-68
2022/12/18 15:14:35;;;;;;;31.92;26.42;;;;;;;;;;10078960;28;20049;-68
2022/12/18 15:19:40;;;;;;;34.97;27.35;;;;;;;;;;10068409;28;20099;-68
2022/12/18 15:24:33;;;;;;;29.40;24.75;;;;;;;;;;10078861;28;20443;-68
2022/12/18 15:29:27;;;;;;;31.70;25.35;;;;;;;;;;10075266;28;20556;-68
2022/12/18 15:34:22;;;;;;;29.63;24.35;;;;;;;;;;10071575;28;20064;-67
2022/12/18 15:39:15;;;;;;;31.73;24.73;;;;;;;;;;10077682;28;20129;-68
2022/12/18 15:44:36;;;;;;;29.85;25.48;;;;;;;;;;10076022;28;20403;-68
2022/12/18 15:49:30;;;;;;;30.40;25.75;;;;;;;;;;10068736;28;20506;-67
2022/12/18 15:57:22;;;;;;;32.70;25.23;;;;;;;;;;10071304;28;20502;-68
2022/12/18 15:59:36;;;;;;;32.70;26.02;;;;;;;;;;10077743;28;20053;-68
2022/12/18 16:04:29;;;;;;;34.25;27.40;;;;;;;;;;10068400;28;20133;-68
2022/12/18 16:09:23;;;;;;;44.05;28.85;;;;;;;;;;10064132;28;20387;-68
2022/12/18 16:14:20;;;;;;;35.03;27.92;;;;;;;;;;10063572;28;20045;-70
2022/12/18 16:19:13;;;;;;;33.80;28.73;;;;;;;;;;10075468;28;20053;-71
2022/12/18 16:24:17;;;;;;;44.42;31.00;;;;;;;;;;10083198;28;20579;-68
2022/12/18 16:29:10;;;;;;;38.22;31.02;;;;;;;;;;10072068;28;20152;-68
2022/12/18 16:34:29;;;;;;;40.53;33.33;;;;;;;;;;10069119;28;20087;-67
2022/12/18 16:39:27;;;;;;;40.65;30.00;;;;;;;;;;10064149;28;20085;-69
2022/12/18 16:44:20;;;;;;;45.30;31.00;;;;;;;;;;10072044;28;20046;-68
2022/12/18 16:49:14;;;;;;;39.28;30.40;;;;;;;;;;10067624;28;20140;-66
2022/12/18 16:54:09;;;;;;;37.65;30.77;;;;;;;;;;10073630;28;20042;-69
2022/12/18 16:59:10;;;;;;;50.42;35.45;;;;;;;;;;10075135;28;20060;-67
2022/12/18 17:04:04;;;;;;;71.28;52.08;;;;;;;;;;10069961;28;20057;-67
2022/12/18 17:09:02;;;;;;;73.05;51.67;;;;;;;;;;10074803;28;20103;-69
2022/12/18 17:13:55;;;;;;;74.43;52.15;;;;;;;;;;10073718;28;20482;-70
2022/12/18 17:18:50;;;;;;;55.63;42.13;;;;;;;;;;10078127;28;20564;-69
2022/12/18 17:23:44;;;;;;;46.20;36.45;;;;;;;;;;10074775;28;20052;-68
2022/12/18 17:28:39;;;;;;;77.97;60.47;;;;;;;;;;10079844;28;20061;-67
2022/12/18 17:33:32;;;;;;;74.03;54.70;;;;;;;;;;10076877;28;20042;-67
2022/12/18 17:38:26;;;;;;;37.08;30.70;;;;;;;;;;10074298;28;20052;-68
2022/12/18 17:43:20;;;;;;;40.72;33.42;;;;;;;;;;10073342;28;20049;-67
2022/12/18 17:48:14;;;;;;;46.35;34.45;;;;;;;;;;10072774;28;20053;-67
2022/12/18 17:53:08;;;;;;;43.63;36.22;;;;;;;;;;10076296;28;20536;-69
2022/12/18 17:58:02;;;;;;;55.35;42.03;;;;;;;;;;10076259;28;20054;-68
2022/12/18 18:02:56;;;;;;;60.88;42.90;;;;;;;;;;10074193;28;20682;-69
2022/12/18 18:07:51;;;;;;;51.35;41.00;;;;;;;;;;10079802;28;20080;-68
2022/12/18 18:17:56;;;;;;;45.85;34.97;;;;;;;;;;10070953;28;20060;-68
2022/12/18 18:22:49;;;;;;;48.85;37.33;;;;;;;;;;10068710;28;20053;-68
2022/12/18 18:27:43;;;;;;;46.75;38.88;;;;;;;;;;10074692;28;20057;-67
2022/12/18 18:32:39;;;;;;;52.40;40.85;;;;;;;;;;10077428;28;20056;-67
2022/12/18 18:37:33;;;;;;;54.63;43.88;;;;;;;;;;10075787;28;20524;-67
2022/12/18 18:42:26;;;;;;;52.67;41.03;;;;;;;;;;10077728;28;20122;-68
2022/12/18 18:47:19;;;;;;;51.83;39.58;;;;;;;;;;10062139;28;20046;-68
2022/12/18 18:52:15;;;;;;;54.13;39.30;;;;;;;;;;10068651;28;20409;-68
2022/12/18 18:57:10;;;;;;;60.90;42.45;;;;;;;;;;10082287;28;20053;-68
2022/12/18 19:02:14;;;;;;;57.55;43.08;;;;;;;;;;10075959;28;20079;-68
2022/12/18 19:07:08;;;;;;;51.13;39.13;;;;;;;;;;10077812;28;20521;-68
2022/12/18 19:17:16;;;;;;;53.60;41.00;;;;;;;;;;10070515;28;20504;-66
2022/12/18 19:22:10;;;;;;;57.20;42.38;;;;;;;;;;10067697;28;20585;-66
2022/12/18 19:27:03;;;;;;;58.38;44.80;;;;;;;;;;10074821;28;20060;-67
2022/12/18 19:31:56;;;;;;;51.22;39.22;;;;;;;;;;10071877;28;20049;-67
2022/12/18 19:36:49;;;;;;;67.30;42.47;;;;;;;;;;10074919;28;20045;-66
2022/12/18 19:41:51;;;;;;;49.83;38.72;;;;;;;;;;10070545;28;20045;-66
2022/12/18 19:46:45;;;;;;;45.63;36.05;;;;;;;;;;10073707;28;20523;-65
2022/12/18 19:51:41;;;;;;;43.45;35.63;;;;;;;;;;10069688;28;20053;-66
2022/12/18 19:56:36;;;;;;;54.42;36.17;;;;;;;;;;10070131;28;20046;-66
2022/12/18 20:01:31;;;;;;;43.40;34.53;;;;;;;;;;10064949;28;20518;-67
2022/12/18 20:06:45;;;;;;;48.13;35.58;;;;;;;;;;10066546;28;20521;-67
2022/12/18 20:11:38;;;;;;;50.55;34.65;;;;;;;;;;10069476;28;20044;-68
2022/12/18 20:16:34;;;;;;;47.85;35.70;;;;;;;;;;10068268;28;20049;-66
2022/12/18 20:21:27;;;;;;;65.88;39.92;;;;;;;;;;10065656;28;20046;-67
2022/12/18 20:26:20;;;;;;;49.78;34.42;;;;;;;;;;10065840;28;20056;-64
2022/12/18 20:31:13;;;;;;;57.13;35.80;;;;;;;;;;10065114;28;20127;-65
2022/12/18 20:36:15;;;;;;;59.20;36.63;;;;;;;;;;10066705;28;20107;-65
2022/12/18 20:41:18;;;;;;;53.10;37.53;;;;;;;;;;10074844;28;20084;-66
2022/12/18 20:46:12;;;;;;;56.60;36.70;;;;;;;;;;10076330;28;20045;-66
2022/12/18 20:51:09;;;;;;;55.97;38.38;;;;;;;;;;10071895;28;20046;-65
2022/12/18 20:56:10;;;;;;;57.45;38.17;;;;;;;;;;10073375;28;20914;-66
2022/12/18 21:01:13;;;;;;;63.50;38.33;;;;;;;;;;10070558;28;20045;-67
2022/12/18 21:06:07;;;;;;;76.68;39.85;;;;;;;;;;10073433;28;20049;-66
2022/12/18 21:16:38;;;;;;;68.40;41.40;;;;;;;;;;10068252;28;20045;-67
2022/12/18 21:21:31;;;;;;;61.65;39.13;;;;;;;;;;10062177;28;20041;-66
2022/12/18 21:26:30;;;;;;;80.40;39.07;;;;;;;;;;10071914;28;20053;-67
2022/12/18 21:31:27;;;;;;;87.95;42.72;;;;;;;;;;10071930;28;20530;-66
2022/12/18 21:36:21;;;;;;;81.70;41.90;;;;;;;;;;10068769;28;20134;-67
2022/12/18 21:44:04;;;;;;;73.47;41.00;;;;;;;;;;10071717;28;20069;-79
2022/12/18 21:46:39;;;;;;;61.35;41.47;;;;;;;;;;10067790;28;20095;-67
2022/12/18 21:51:33;;;;;;;72.53;42.85;;;;;;;;;;10072273;28;20106;-67
2022/12/18 21:56:47;;;;;;;67.80;42.63;;;;;;;;;;10070064;28;20399;-66
2022/12/18 22:01:41;;;;;;;75.53;44.72;;;;;;;;;;10072759;28;20069;-66
2022/12/18 22:06:34;;;;;;;82.00;47.47;;;;;;;;;;10071364;28;20107;-67
2022/12/18 22:11:28;;;;;;;80.65;48.22;;;;;;;;;;10069013;28;20052;-67
2022/12/18 22:16:21;;;;;;;91.28;51.03;;;;;;;;;;10071357;28;20080;-66
2022/12/18 22:21:41;;;;;;;76.13;42.33;;;;;;;;;;10080715;28;20132;-66
2022/12/18 22:26:37;;;;;;;76.13;44.05;;;;;;;;;;10075005;28;20052;-65
2022/12/18 22:31:32;;;;;;;78.50;47.72;;;;;;;;;;10073421;28;20421;-66
2022/12/18 22:36:26;;;;;;;67.85;40.70;;;;;;;;;;10072424;28;20104;-65
2022/12/18 22:41:20;;;;;;;70.53;44.30;;;;;;;;;;10080211;28;20054;-65
2022/12/18 22:46:17;;;;;;;81.95;45.55;;;;;;;;;;10078426;28;20120;-65
2022/12/18 22:51:15;;;;;;;75.78;47.03;;;;;;;;;;10076075;28;20075;-65
2022/12/18 22:56:09;;;;;;;81.28;50.03;;;;;;;;;;10076245;28;20050;-65
2022/12/18 23:01:25;;;;;;;79.80;49.53;;;;;;;;;;10066709;28;20046;-65
2022/12/18 23:06:27;;;;;;;94.75;54.05;;;;;;;;;;10079205;28;20057;-66
2022/12/18 23:11:19;;;;;;;91.35;50.67;;;;;;;;;;10070653;28;20473;-66
2022/12/18 23:16:14;;;;;;;98.97;52.75;;;;;;;;;;10079835;28;20572;-66
2022/12/18 23:21:12;;;;;;;86.47;49.35;;;;;;;;;;10077603;28;20418;-66
2022/12/18 23:26:14;;;;;;;86.97;50.28;;;;;;;;;;10076623;28;20069;-66
2022/12/18 23:31:15;;;;;;;78.93;47.75;;;;;;;;;;10066894;28;20407;-66
2022/12/18 23:36:09;;;;;;;81.47;50.33;;;;;;;;;;10067189;28;20471;-66
2022/12/18 23:41:29;;;;;;;90.88;52.83;;;;;;;;;;10066910;28;20473;-66
2022/12/18 23:46:24;;;;;;;96.70;53.03;;;;;;;;;;10066048;28;20056;-64
2022/12/18 23:51:24;;;;;;;109.93;62.07;;;;;;;;;;10066681;28;20046;-65
2022/12/18 23:56:17;;;;;;;92.93;53.65;;;;;;;;;;10066989;28;20569;-65
